sensor_id;sensor_type;location;lat;lon;timestamp;temperature;humidity
61672;DHT22;47572;0.00000000;0.00000000;2022-10-31T00:00:06;20.20;80.10
61672;DHT22;47572;0.00000000;0.00000000;2022-10-31T00:02:33;20.20;80.00
61672;DHT22;47572;0.00000000;0.00000000;2022-10-31T00:04:58;20.20;80.10
61672;DHT22;47572;0.00000000;0.00000000;2022-10-31T00:07:24;20.20;80.10
61672;DHT22;47572;0.00000000;0.00000000;2022-10-31T00:09:50;20.20;80.10
61672;DHT22;47572;0.00000000;0.00000000;2022-10-31T00:12:15;20.10;79.90
61672;DHT22;47572;0.00000000;0.00000000;2022-10-31T00:14:42;20.10;79.90
61672;DHT22;47572;0.00000000;0.00000000;2022-10-31T00:17:07;20.20;79.90
61672;DHT22;47572;0.00000000;0.00000000;2022-10-31T00:19:33;20.10;79.90
61672;DHT22;47572;0.00000000;0.00000000;2022-10-31T00:21:59;20.10;79.80
61672;DHT22;47572;0.00000000;0.00000000;2022-10-31T00:24:24;20.10;79.90
61672;DHT22;47572;0.00000000;0.00000000;2022-10-31T00:26:50;20.10;79.80
61672;DHT22;47572;0.00000000;0.00000000;2022-10-31T00:29:16;20.10;79.90
61672;DHT22;47572;0.00000000;0.00000000;2022-10-31T00:31:41;20.10;79.90
61672;DHT22;47572;0.00000000;0.00000000;2022-10-31T00:34:07;20.10;79.90
61672;DHT22;47572;0.00000000;0.00000000;2022-10-31T00:36:33;20.10;79.90
61672;DHT22;47572;0.00000000;0.00000000;2022-10-31T00:38:58;20.10;79.80
61672;DHT22;47572;0.00000000;0.00000000;2022-10-31T00:41:24;20.10;79.80
61672;DHT22;47572;0.00000000;0.00000000;2022-10-31T00:43:50;20.10;79.80
61672;DHT22;47572;0.00000000;0.00000000;2022-10-31T00:46:16;20.00;79.80
61672;DHT22;47572;0.00000000;0.00000000;2022-10-31T00:48:41;20.10;79.90
61672;DHT22;47572;0.00000000;0.00000000;2022-10-31T00:51:07;20.00;79.90
61672;DHT22;47572;0.00000000;0.00000000;2022-10-31T00:53:33;20.00;79.90
61672;DHT22;47572;0.00000000;0.00000000;2022-10-31T00:55:59;20.00;80.80
61672;DHT22;47572;0.00000000;0.00000000;2022-10-31T00:58:24;20.00;79.90
61672;DHT22;47572;0.00000000;0.00000000;2022-10-31T01:00:50;20.00;80.00
61672;DHT22;47572;0.00000000;0.00000000;2022-10-31T01:03:22;20.00;80.00
61672;DHT22;47572;0.00000000;0.00000000;2022-10-31T01:08:29;20.00;80.00
61672;DHT22;47572;0.00000000;0.00000000;2022-10-31T01:11:01;20.00;79.90
61672;DHT22;47572;0.00000000;0.00000000;2022-10-31T01:13:27;20.00;79.80
61672;DHT22;47572;0.00000000;0.00000000;2022-10-31T01:15:57;20.00;79.80
61672;DHT22;47572;0.00000000;0.00000000;2022-10-31T01:18:23;20.00;79.70
61672;DHT22;47572;0.00000000;0.00000000;2022-10-31T01:21:06;20.00;79.60
61672;DHT22;47572;0.00000000;0.00000000;2022-10-31T01:23:32;20.00;79.60
61672;DHT22;47572;0.00000000;0.00000000;2022-10-31T01:25:59;20.00;79.50
61672;DHT22;47572;0.00000000;0.00000000;2022-10-31T01:28:25;20.00;79.50
61672;DHT22;47572;0.00000000;0.00000000;2022-10-31T01:30:51;20.00;79.50
61672;DHT22;47572;0.00000000;0.00000000;2022-10-31T01:33:16;20.00;79.50
61672;DHT22;47572;0.00000000;0.00000000;2022-10-31T01:35:42;20.00;79.40
61672;DHT22;47572;0.00000000;0.00000000;2022-10-31T01:38:08;20.00;79.40
61672;DHT22;47572;0.00000000;0.00000000;2022-10-31T01:40:33;19.90;79.40
61672;DHT22;47572;0.00000000;0.00000000;2022-10-31T01:42:59;20.00;79.40
61672;DHT22;47572;0.00000000;0.00000000;2022-10-31T01:45:24;19.90;79.30
61672;DHT22;47572;0.00000000;0.00000000;2022-10-31T01:47:50;19.90;79.30
61672;DHT22;47572;0.00000000;0.00000000;2022-10-31T01:50:30;19.90;79.30
61672;DHT22;47572;0.00000000;0.00000000;2022-10-31T01:52:58;19.90;79.30
61672;DHT22;47572;0.00000000;0.00000000;2022-10-31T01:55:26;19.90;79.30
61672;DHT22;47572;0.00000000;0.00000000;2022-10-31T01:57:54;19.90;79.30
61672;DHT22;47572;0.00000000;0.00000000;2022-10-31T02:00:20;19.90;79.30
61672;DHT22;47572;0.00000000;0.00000000;2022-10-31T02:02:47;19.90;79.30
61672;DHT22;47572;0.00000000;0.00000000;2022-10-31T02:05:14;19.90;79.20
61672;DHT22;47572;0.00000000;0.00000000;2022-10-31T02:07:57;19.90;79.20
61672;DHT22;47572;0.00000000;0.00000000;2022-10-31T02:10:23;19.90;79.20
61672;DHT22;47572;0.00000000;0.00000000;2022-10-31T02:12:53;19.90;79.20
61672;DHT22;47572;0.00000000;0.00000000;2022-10-31T02:15:19;19.90;79.30
61672;DHT22;47572;0.00000000;0.00000000;2022-10-31T02:17:45;19.80;79.10
61672;DHT22;47572;0.00000000;0.00000000;2022-10-31T02:20:20;19.80;79.20
61672;DHT22;47572;0.00000000;0.00000000;2022-10-31T02:31:32;19.80;79.20
61672;DHT22;47572;0.00000000;0.00000000;2022-10-31T02:33:30;19.80;79.20
61672;DHT22;47572;0.00000000;0.00000000;2022-10-31T02:36:10;19.80;79.20
61672;DHT22;47572;0.00000000;0.00000000;2022-10-31T02:41:09;19.80;79.10
61672;DHT22;47572;0.00000000;0.00000000;2022-10-31T02:43:44;19.80;79.10
61672;DHT22;47572;0.00000000;0.00000000;2022-10-31T02:46:14;19.80;79.10
61672;DHT22;47572;0.00000000;0.00000000;2022-10-31T02:48:41;19.80;79.10
61672;DHT22;47572;0.00000000;0.00000000;2022-10-31T02:51:09;19.80;79.10
61672;DHT22;47572;0.00000000;0.00000000;2022-10-31T02:53:36;19.80;79.10
61672;DHT22;47572;0.00000000;0.00000000;2022-10-31T02:58:29;19.70;79.00
61672;DHT22;47572;0.00000000;0.00000000;2022-10-31T03:08:56;19.70;79.10
61672;DHT22;47572;0.00000000;0.00000000;2022-10-31T03:11:28;19.70;79.00
61672;DHT22;47572;0.00000000;0.00000000;2022-10-31T03:14:05;19.70;79.00
61672;DHT22;47572;0.00000000;0.00000000;2022-10-31T03:16:47;19.70;79.00
61672;DHT22;47572;0.00000000;0.00000000;2022-10-31T03:21:53;19.70;78.90
61672;DHT22;47572;0.00000000;0.00000000;2022-10-31T03:24:21;19.70;78.90
61672;DHT22;47572;0.00000000;0.00000000;2022-10-31T03:26:49;19.70;78.90
61672;DHT22;47572;0.00000000;0.00000000;2022-10-31T03:29:17;19.70;78.90
61672;DHT22;47572;0.00000000;0.00000000;2022-10-31T03:31:46;19.70;78.80
61672;DHT22;47572;0.00000000;0.00000000;2022-10-31T03:34:13;19.70;78.80
61672;DHT22;47572;0.00000000;0.00000000;2022-10-31T03:36:40;19.60;78.80
61672;DHT22;47572;0.00000000;0.00000000;2022-10-31T03:39:07;19.60;78.80
61672;DHT22;47572;0.00000000;0.00000000;2022-10-31T03:41:35;19.60;78.70
61672;DHT22;47572;0.00000000;0.00000000;2022-10-31T03:44:06;19.60;78.70
61672;DHT22;47572;0.00000000;0.00000000;2022-10-31T03:46:32;19.60;78.70
61672;DHT22;47572;0.00000000;0.00000000;2022-10-31T03:48:58;19.60;78.70
61672;DHT22;47572;0.00000000;0.00000000;2022-10-31T03:53:54;19.60;78.70
61672;DHT22;47572;0.00000000;0.00000000;2022-10-31T03:56:24;19.60;78.60
61672;DHT22;47572;0.00000000;0.00000000;2022-10-31T03:58:57;19.60;78.60
61672;DHT22;47572;0.00000000;0.00000000;2022-10-31T04:01:24;19.60;78.60
61672;DHT22;47572;0.00000000;0.00000000;2022-10-31T04:03:51;19.60;78.60
61672;DHT22;47572;0.00000000;0.00000000;2022-10-31T04:06:17;19.60;78.60
61672;DHT22;47572;0.00000000;0.00000000;2022-10-31T04:08:45;19.60;78.60
61672;DHT22;47572;0.00000000;0.00000000;2022-10-31T04:11:13;19.60;78.60
61672;DHT22;47572;0.00000000;0.00000000;2022-10-31T04:13:40;19.60;78.50
61672;DHT22;47572;0.00000000;0.00000000;2022-10-31T04:16:08;19.60;78.50
61672;DHT22;47572;0.00000000;0.00000000;2022-10-31T04:18:34;19.60;78.50
61672;DHT22;47572;0.00000000;0.00000000;2022-10-31T04:21:04;19.60;78.50
61672;DHT22;47572;0.00000000;0.00000000;2022-10-31T04:23:31;19.60;78.50
61672;DHT22;47572;0.00000000;0.00000000;2022-10-31T04:25:57;19.50;78.50
61672;DHT22;47572;0.00000000;0.00000000;2022-10-31T04:28:23;19.50;78.40
61672;DHT22;47572;0.00000000;0.00000000;2022-10-31T04:30:49;19.50;78.50
61672;DHT22;47572;0.00000000;0.00000000;2022-10-31T04:33:15;19.50;78.50
61672;DHT22;47572;0.00000000;0.00000000;2022-10-31T04:35:40;19.50;78.50
61672;DHT22;47572;0.00000000;0.00000000;2022-10-31T04:38:06;19.50;78.40
61672;DHT22;47572;0.00000000;0.00000000;2022-10-31T04:40:31;19.50;78.50
61672;DHT22;47572;0.00000000;0.00000000;2022-10-31T04:42:57;19.50;78.40
61672;DHT22;47572;0.00000000;0.00000000;2022-10-31T04:45:23;19.50;78.50
61672;DHT22;47572;0.00000000;0.00000000;2022-10-31T04:47:48;19.50;78.50
61672;DHT22;47572;0.00000000;0.00000000;2022-10-31T04:50:14;19.50;78.40
61672;DHT22;47572;0.00000000;0.00000000;2022-10-31T04:52:40;19.50;78.40
61672;DHT22;47572;0.00000000;0.00000000;2022-10-31T04:55:06;19.50;78.40
61672;DHT22;47572;0.00000000;0.00000000;2022-10-31T04:57:32;19.50;78.30
61672;DHT22;47572;0.00000000;0.00000000;2022-10-31T04:59:57;19.50;78.30
61672;DHT22;47572;0.00000000;0.00000000;2022-10-31T05:02:23;19.50;78.30
61672;DHT22;47572;0.00000000;0.00000000;2022-10-31T05:04:49;19.50;78.30
61672;DHT22;47572;0.00000000;0.00000000;2022-10-31T05:07:14;19.40;78.30
61672;DHT22;47572;0.00000000;0.00000000;2022-10-31T05:09:40;19.50;79.20
61672;DHT22;47572;0.00000000;0.00000000;2022-10-31T05:12:05;19.40;78.30
61672;DHT22;47572;0.00000000;0.00000000;2022-10-31T05:14:31;19.40;78.30
61672;DHT22;47572;0.00000000;0.00000000;2022-10-31T05:16:57;19.40;78.30
61672;DHT22;47572;0.00000000;0.00000000;2022-10-31T05:19:22;19.40;78.30
61672;DHT22;47572;0.00000000;0.00000000;2022-10-31T05:21:49;19.40;78.30
61672;DHT22;47572;0.00000000;0.00000000;2022-10-31T05:24:14;19.40;78.30
61672;DHT22;47572;0.00000000;0.00000000;2022-10-31T05:26:40;19.40;78.30
61672;DHT22;47572;0.00000000;0.00000000;2022-10-31T05:29:06;19.40;78.30
61672;DHT22;47572;0.00000000;0.00000000;2022-10-31T05:31:31;19.40;78.20
61672;DHT22;47572;0.00000000;0.00000000;2022-10-31T05:33:57;19.40;78.20
61672;DHT22;47572;0.00000000;0.00000000;2022-10-31T05:36:23;19.40;78.20
61672;DHT22;47572;0.00000000;0.00000000;2022-10-31T05:38:48;19.40;78.20
61672;DHT22;47572;0.00000000;0.00000000;2022-10-31T05:41:14;19.40;78.20
61672;DHT22;47572;0.00000000;0.00000000;2022-10-31T05:43:40;19.40;78.20
61672;DHT22;47572;0.00000000;0.00000000;2022-10-31T05:46:05;19.40;78.20
61672;DHT22;47572;0.00000000;0.00000000;2022-10-31T05:48:31;19.40;78.30
61672;DHT22;47572;0.00000000;0.00000000;2022-10-31T05:50:57;19.30;78.20
61672;DHT22;47572;0.00000000;0.00000000;2022-10-31T05:53:22;19.40;78.20
61672;DHT22;47572;0.00000000;0.00000000;2022-10-31T05:55:48;19.30;78.20
61672;DHT22;47572;0.00000000;0.00000000;2022-10-31T05:58:13;19.30;78.20
61672;DHT22;47572;0.00000000;0.00000000;2022-10-31T06:00:39;19.40;78.30
61672;DHT22;47572;0.00000000;0.00000000;2022-10-31T06:03:06;19.30;78.10
61672;DHT22;47572;0.00000000;0.00000000;2022-10-31T06:05:32;19.30;78.10
61672;DHT22;47572;0.00000000;0.00000000;2022-10-31T06:07:58;19.30;78.10
61672;DHT22;47572;0.00000000;0.00000000;2022-10-31T06:10:24;19.30;78.10
61672;DHT22;47572;0.00000000;0.00000000;2022-10-31T06:12:50;19.30;78.00
61672;DHT22;47572;0.00000000;0.00000000;2022-10-31T06:15:16;19.30;78.10
61672;DHT22;47572;0.00000000;0.00000000;2022-10-31T06:17:42;19.30;78.00
61672;DHT22;47572;0.00000000;0.00000000;2022-10-31T06:20:07;19.30;78.00
61672;DHT22;47572;0.00000000;0.00000000;2022-10-31T06:22:34;19.30;78.00
61672;DHT22;47572;0.00000000;0.00000000;2022-10-31T06:25:00;19.30;78.00
61672;DHT22;47572;0.00000000;0.00000000;2022-10-31T06:27:25;19.30;78.00
61672;DHT22;47572;0.00000000;0.00000000;2022-10-31T06:29:51;19.30;78.00
61672;DHT22;47572;0.00000000;0.00000000;2022-10-31T06:32:17;19.30;78.00
61672;DHT22;47572;0.00000000;0.00000000;2022-10-31T06:34:43;19.30;78.00
61672;DHT22;47572;0.00000000;0.00000000;2022-10-31T06:37:10;19.30;78.00
61672;DHT22;47572;0.00000000;0.00000000;2022-10-31T06:39:36;19.30;78.00
61672;DHT22;47572;0.00000000;0.00000000;2022-10-31T06:42:02;19.20;77.90
61672;DHT22;47572;0.00000000;0.00000000;2022-10-31T06:44:28;19.30;78.10
61672;DHT22;47572;0.00000000;0.00000000;2022-10-31T06:46:54;19.30;78.00
61672;DHT22;47572;0.00000000;0.00000000;2022-10-31T06:49:19;19.30;78.00
61672;DHT22;47572;0.00000000;0.00000000;2022-10-31T06:51:48;19.20;77.90
61672;DHT22;47572;0.00000000;0.00000000;2022-10-31T06:54:14;19.20;78.00
61672;DHT22;47572;0.00000000;0.00000000;2022-10-31T06:56:40;19.20;77.90
61672;DHT22;47572;0.00000000;0.00000000;2022-10-31T06:59:06;19.20;77.90
61672;DHT22;47572;0.00000000;0.00000000;2022-10-31T07:01:32;19.20;78.00
61672;DHT22;47572;0.00000000;0.00000000;2022-10-31T07:03:57;19.20;77.90
61672;DHT22;47572;0.00000000;0.00000000;2022-10-31T07:06:23;19.20;77.90
61672;DHT22;47572;0.00000000;0.00000000;2022-10-31T07:08:49;19.20;77.80
61672;DHT22;47572;0.00000000;0.00000000;2022-10-31T07:11:14;19.20;77.80
61672;DHT22;47572;0.00000000;0.00000000;2022-10-31T07:13:40;19.20;77.80
61672;DHT22;47572;0.00000000;0.00000000;2022-10-31T07:16:06;19.20;77.80
61672;DHT22;47572;0.00000000;0.00000000;2022-10-31T07:18:39;19.20;77.80
61672;DHT22;47572;0.00000000;0.00000000;2022-10-31T07:21:05;19.20;77.80
61672;DHT22;47572;0.00000000;0.00000000;2022-10-31T07:23:32;19.10;77.70
61672;DHT22;47572;0.00000000;0.00000000;2022-10-31T07:25:58;19.10;77.70
61672;DHT22;47572;0.00000000;0.00000000;2022-10-31T07:28:24;19.10;77.70
61672;DHT22;47572;0.00000000;0.00000000;2022-10-31T07:30:54;19.20;77.80
61672;DHT22;47572;0.00000000;0.00000000;2022-10-31T07:33:20;19.10;77.70
61672;DHT22;47572;0.00000000;0.00000000;2022-10-31T07:35:45;19.10;77.70
61672;DHT22;47572;0.00000000;0.00000000;2022-10-31T07:38:12;19.10;76.30
61672;DHT22;47572;0.00000000;0.00000000;2022-10-31T07:40:38;19.10;76.30
61672;DHT22;47572;0.00000000;0.00000000;2022-10-31T07:43:04;19.10;76.10
61672;DHT22;47572;0.00000000;0.00000000;2022-10-31T07:45:30;19.10;76.90
61672;DHT22;47572;0.00000000;0.00000000;2022-10-31T07:47:56;19.10;77.30
61672;DHT22;47572;0.00000000;0.00000000;2022-10-31T07:50:27;19.10;77.20
61672;DHT22;47572;0.00000000;0.00000000;2022-10-31T07:53:03;19.10;77.30
61672;DHT22;47572;0.00000000;0.00000000;2022-10-31T07:55:29;19.10;77.50
61672;DHT22;47572;0.00000000;0.00000000;2022-10-31T07:57:56;19.10;77.40
61672;DHT22;47572;0.00000000;0.00000000;2022-10-31T08:00:22;19.20;77.40
61672;DHT22;47572;0.00000000;0.00000000;2022-10-31T08:02:47;19.20;77.40
61672;DHT22;47572;0.00000000;0.00000000;2022-10-31T08:05:13;19.20;77.40
61672;DHT22;47572;0.00000000;0.00000000;2022-10-31T08:07:39;19.20;77.50
61672;DHT22;47572;0.00000000;0.00000000;2022-10-31T08:10:05;19.10;77.30
61672;DHT22;47572;0.00000000;0.00000000;2022-10-31T08:12:31;19.10;77.40
61672;DHT22;47572;0.00000000;0.00000000;2022-10-31T08:14:56;19.10;77.50
61672;DHT22;47572;0.00000000;0.00000000;2022-10-31T08:17:22;19.10;77.50
61672;DHT22;47572;0.00000000;0.00000000;2022-10-31T08:19:48;19.20;77.60
61672;DHT22;47572;0.00000000;0.00000000;2022-10-31T08:22:13;19.10;77.50
61672;DHT22;47572;0.00000000;0.00000000;2022-10-31T08:24:40;19.10;77.60
61672;DHT22;47572;0.00000000;0.00000000;2022-10-31T08:27:05;19.10;77.60
61672;DHT22;47572;0.00000000;0.00000000;2022-10-31T08:29:31;19.10;77.60
61672;DHT22;47572;0.00000000;0.00000000;2022-10-31T08:31:57;19.10;77.60
61672;DHT22;47572;0.00000000;0.00000000;2022-10-31T08:34:23;19.10;77.70
61672;DHT22;47572;0.00000000;0.00000000;2022-10-31T08:36:49;19.10;77.60
61672;DHT22;47572;0.00000000;0.00000000;2022-10-31T08:39:14;19.10;77.70
61672;DHT22;47572;0.00000000;0.00000000;2022-10-31T08:41:40;19.20;77.70
61672;DHT22;47572;0.00000000;0.00000000;2022-10-31T08:44:06;19.10;77.60
61672;DHT22;47572;0.00000000;0.00000000;2022-10-31T08:46:32;19.10;77.60
61672;DHT22;47572;0.00000000;0.00000000;2022-10-31T08:48:58;19.20;77.70
61672;DHT22;47572;0.00000000;0.00000000;2022-10-31T08:51:23;19.10;77.60
61672;DHT22;47572;0.00000000;0.00000000;2022-10-31T08:53:49;19.20;77.70
61672;DHT22;47572;0.00000000;0.00000000;2022-10-31T08:56:15;19.20;77.70
61672;DHT22;47572;0.00000000;0.00000000;2022-10-31T08:58:40;19.10;77.60
61672;DHT22;47572;0.00000000;0.00000000;2022-10-31T09:01:06;19.20;77.70
61672;DHT22;47572;0.00000000;0.00000000;2022-10-31T09:03:32;19.10;77.60
61672;DHT22;47572;0.00000000;0.00000000;2022-10-31T09:05:59;19.10;77.60
61672;DHT22;47572;0.00000000;0.00000000;2022-10-31T09:08:25;19.20;77.60
61672;DHT22;47572;0.00000000;0.00000000;2022-10-31T09:10:51;19.10;77.60
61672;DHT22;47572;0.00000000;0.00000000;2022-10-31T09:13:20;19.10;77.50
61672;DHT22;47572;0.00000000;0.00000000;2022-10-31T09:15:47;19.20;77.60
61672;DHT22;47572;0.00000000;0.00000000;2022-10-31T09:18:13;19.20;77.60
61672;DHT22;47572;0.00000000;0.00000000;2022-10-31T09:20:40;19.20;77.60
61672;DHT22;47572;0.00000000;0.00000000;2022-10-31T09:23:06;19.20;77.60
61672;DHT22;47572;0.00000000;0.00000000;2022-10-31T09:25:33;19.10;77.50
61672;DHT22;47572;0.00000000;0.00000000;2022-10-31T09:28:00;19.10;77.60
61672;DHT22;47572;0.00000000;0.00000000;2022-10-31T09:30:27;19.10;77.50
61672;DHT22;47572;0.00000000;0.00000000;2022-10-31T09:32:56;19.10;77.60
61672;DHT22;47572;0.00000000;0.00000000;2022-10-31T09:35:22;19.10;77.50
61672;DHT22;47572;0.00000000;0.00000000;2022-10-31T09:37:53;19.20;77.60
61672;DHT22;47572;0.00000000;0.00000000;2022-10-31T09:40:19;19.20;77.60
61672;DHT22;47572;0.00000000;0.00000000;2022-10-31T09:42:48;19.20;77.60
61672;DHT22;47572;0.00000000;0.00000000;2022-10-31T09:50:19;19.10;77.50
61672;DHT22;47572;0.00000000;0.00000000;2022-10-31T09:53:02;19.20;77.50
61672;DHT22;47572;0.00000000;0.00000000;2022-10-31T09:55:36;19.20;77.50
61672;DHT22;47572;0.00000000;0.00000000;2022-10-31T09:58:02;19.20;77.50
61672;DHT22;47572;0.00000000;0.00000000;2022-10-31T10:00:28;19.20;77.50
61672;DHT22;47572;0.00000000;0.00000000;2022-10-31T10:06:04;19.20;77.40
61672;DHT22;47572;0.00000000;0.00000000;2022-10-31T10:08:10;19.20;77.40
61672;DHT22;47572;0.00000000;0.00000000;2022-10-31T10:15:35;19.20;77.50
61672;DHT22;47572;0.00000000;0.00000000;2022-10-31T10:18:18;19.20;77.50
61672;DHT22;47572;0.00000000;0.00000000;2022-10-31T10:20:56;19.20;77.50
61672;DHT22;47572;0.00000000;0.00000000;2022-10-31T10:25:50;19.20;77.40
61672;DHT22;47572;0.00000000;0.00000000;2022-10-31T10:28:32;19.10;77.40
61672;DHT22;47572;0.00000000;0.00000000;2022-10-31T10:33:50;19.10;77.30
61672;DHT22;47572;0.00000000;0.00000000;2022-10-31T10:36:17;19.10;77.10
61672;DHT22;47572;0.00000000;0.00000000;2022-10-31T10:41:17;19.10;77.00
61672;DHT22;47572;0.00000000;0.00000000;2022-10-31T10:43:43;19.10;77.00
61672;DHT22;47572;0.00000000;0.00000000;2022-10-31T10:46:19;19.10;77.10
61672;DHT22;47572;0.00000000;0.00000000;2022-10-31T10:56:41;19.10;76.90
61672;DHT22;47572;0.00000000;0.00000000;2022-10-31T10:59:14;19.10;77.00
61672;DHT22;47572;0.00000000;0.00000000;2022-10-31T11:01:41;19.10;76.90
61672;DHT22;47572;0.00000000;0.00000000;2022-10-31T11:07:06;19.10;77.00
61672;DHT22;47572;0.00000000;0.00000000;2022-10-31T11:09:32;19.10;76.90
61672;DHT22;47572;0.00000000;0.00000000;2022-10-31T11:11:58;19.20;77.00
61672;DHT22;47572;0.00000000;0.00000000;2022-10-31T11:14:25;19.10;76.90
61672;DHT22;47572;0.00000000;0.00000000;2022-10-31T11:16:54;19.10;76.90
61672;DHT22;47572;0.00000000;0.00000000;2022-10-31T11:19:21;19.20;76.80
61672;DHT22;47572;0.00000000;0.00000000;2022-10-31T11:21:48;19.10;76.80
61672;DHT22;47572;0.00000000;0.00000000;2022-10-31T11:24:24;19.20;76.90
61672;DHT22;47572;0.00000000;0.00000000;2022-10-31T11:27:03;19.10;76.80
61672;DHT22;47572;0.00000000;0.00000000;2022-10-31T11:29:34;19.10;76.70
61672;DHT22;47572;0.00000000;0.00000000;2022-10-31T11:32:02;19.10;76.70
61672;DHT22;47572;0.00000000;0.00000000;2022-10-31T11:34:29;19.20;76.90
61672;DHT22;47572;0.00000000;0.00000000;2022-10-31T11:36:58;19.10;76.70
61672;DHT22;47572;0.00000000;0.00000000;2022-10-31T11:39:24;19.10;76.70
61672;DHT22;47572;0.00000000;0.00000000;2022-10-31T11:41:50;19.10;76.60
61672;DHT22;47572;0.00000000;0.00000000;2022-10-31T11:44:21;19.20;76.70
61672;DHT22;47572;0.00000000;0.00000000;2022-10-31T11:46:52;19.20;76.60
61672;DHT22;47572;0.00000000;0.00000000;2022-10-31T11:49:51;19.20;76.70
61672;DHT22;47572;0.00000000;0.00000000;2022-10-31T11:54:41;19.10;76.50
61672;DHT22;47572;0.00000000;0.00000000;2022-10-31T11:57:24;19.10;76.50
61672;DHT22;47572;0.00000000;0.00000000;2022-10-31T11:59:53;19.20;76.50
61672;DHT22;47572;0.00000000;0.00000000;2022-10-31T12:02:20;19.10;76.60
61672;DHT22;47572;0.00000000;0.00000000;2022-10-31T12:04:47;19.10;76.70
61672;DHT22;47572;0.00000000;0.00000000;2022-10-31T12:07:14;19.10;76.40
61672;DHT22;47572;0.00000000;0.00000000;2022-10-31T12:09:40;19.10;76.30
61672;DHT22;47572;0.00000000;0.00000000;2022-10-31T12:17:17;19.10;76.10
61672;DHT22;47572;0.00000000;0.00000000;2022-10-31T12:19:53;19.10;76.40
61672;DHT22;47572;0.00000000;0.00000000;2022-10-31T12:30:20;19.10;76.00
61672;DHT22;47572;0.00000000;0.00000000;2022-10-31T12:38:36;19.10;76.00
61672;DHT22;47572;0.00000000;0.00000000;2022-10-31T12:46:25;19.10;76.00
61672;DHT22;47572;0.00000000;0.00000000;2022-10-31T12:51:33;19.10;76.10
61672;DHT22;47572;0.00000000;0.00000000;2022-10-31T13:01:44;19.00;75.70
61672;DHT22;47572;0.00000000;0.00000000;2022-10-31T13:04:28;19.10;75.80
61672;DHT22;47572;0.00000000;0.00000000;2022-10-31T13:06:58;19.10;75.80
61672;DHT22;47572;0.00000000;0.00000000;2022-10-31T13:09:27;19.00;75.70
61672;DHT22;47572;0.00000000;0.00000000;2022-10-31T13:11:58;19.00;75.90
61672;DHT22;47572;0.00000000;0.00000000;2022-10-31T13:14:29;19.00;75.90
61672;DHT22;47572;0.00000000;0.00000000;2022-10-31T13:16:55;19.00;76.10
61672;DHT22;47572;0.00000000;0.00000000;2022-10-31T13:22:06;19.00;76.10
61672;DHT22;47572;0.00000000;0.00000000;2022-10-31T13:24:43;19.10;75.80
61672;DHT22;47572;0.00000000;0.00000000;2022-10-31T13:27:14;19.10;76.00
61672;DHT22;47572;0.00000000;0.00000000;2022-10-31T13:29:50;19.10;76.10
61672;DHT22;47572;0.00000000;0.00000000;2022-10-31T13:32:17;19.10;76.10
61672;DHT22;47572;0.00000000;0.00000000;2022-10-31T13:34:50;19.10;76.00
61672;DHT22;47572;0.00000000;0.00000000;2022-10-31T13:37:36;19.10;76.00
61672;DHT22;47572;0.00000000;0.00000000;2022-10-31T13:40:22;19.00;75.90
61672;DHT22;47572;0.00000000;0.00000000;2022-10-31T13:42:53;19.00;75.90
61672;DHT22;47572;0.00000000;0.00000000;2022-10-31T13:45:23;19.10;76.00
61672;DHT22;47572;0.00000000;0.00000000;2022-10-31T13:47:56;19.00;75.80
61672;DHT22;47572;0.00000000;0.00000000;2022-10-31T13:50:27;19.10;75.90
61672;DHT22;47572;0.00000000;0.00000000;2022-10-31T13:53:10;19.00;75.80
61672;DHT22;47572;0.00000000;0.00000000;2022-10-31T13:55:38;19.00;75.90
61672;DHT22;47572;0.00000000;0.00000000;2022-10-31T13:58:05;19.10;75.80
61672;DHT22;47572;0.00000000;0.00000000;2022-10-31T14:00:44;19.10;75.80
61672;DHT22;47572;0.00000000;0.00000000;2022-10-31T14:03:17;19.00;75.60
61672;DHT22;47572;0.00000000;0.00000000;2022-10-31T14:05:43;19.10;75.80
61672;DHT22;47572;0.00000000;0.00000000;2022-10-31T14:08:18;19.00;75.80
61672;DHT22;47572;0.00000000;0.00000000;2022-10-31T14:10:48;19.10;75.80
61672;DHT22;47572;0.00000000;0.00000000;2022-10-31T14:13:20;19.00;75.80
61672;DHT22;47572;0.00000000;0.00000000;2022-10-31T14:15:56;19.10;76.00
61672;DHT22;47572;0.00000000;0.00000000;2022-10-31T14:18:28;19.10;76.10
61672;DHT22;47572;0.00000000;0.00000000;2022-10-31T14:20:55;19.10;76.20
61672;DHT22;47572;0.00000000;0.00000000;2022-10-31T14:28:34;19.10;76.40
61672;DHT22;47572;0.00000000;0.00000000;2022-10-31T14:31:01;19.10;76.40
61672;DHT22;47572;0.00000000;0.00000000;2022-10-31T14:33:27;19.10;76.60
61672;DHT22;47572;0.00000000;0.00000000;2022-10-31T14:43:33;19.10;76.60
61672;DHT22;47572;0.00000000;0.00000000;2022-10-31T14:46:01;19.10;76.50
61672;DHT22;47572;0.00000000;0.00000000;2022-10-31T14:51:13;19.20;76.60
61672;DHT22;47572;0.00000000;0.00000000;2022-10-31T14:53:50;19.30;76.40
61672;DHT22;47572;0.00000000;0.00000000;2022-10-31T14:56:27;19.40;76.20
61672;DHT22;47572;0.00000000;0.00000000;2022-10-31T14:58:55;19.50;76.00
61672;DHT22;47572;0.00000000;0.00000000;2022-10-31T15:01:32;19.60;75.60
61672;DHT22;47572;0.00000000;0.00000000;2022-10-31T15:04:20;19.70;75.40
61672;DHT22;47572;0.00000000;0.00000000;2022-10-31T15:06:46;19.80;75.00
61672;DHT22;47572;0.00000000;0.00000000;2022-10-31T15:09:29;20.00;74.70
61672;DHT22;47572;0.00000000;0.00000000;2022-10-31T15:11:57;20.10;74.30
61672;DHT22;47572;0.00000000;0.00000000;2022-10-31T15:14:30;20.20;73.90
61672;DHT22;47572;0.00000000;0.00000000;2022-10-31T15:17:01;20.30;73.70
61672;DHT22;47572;0.00000000;0.00000000;2022-10-31T15:19:28;20.40;73.50
61672;DHT22;47572;0.00000000;0.00000000;2022-10-31T15:21:55;20.50;73.30
61672;DHT22;47572;0.00000000;0.00000000;2022-10-31T15:24:22;20.60;73.10
61672;DHT22;47572;0.00000000;0.00000000;2022-10-31T15:26:49;20.60;73.00
61672;DHT22;47572;0.00000000;0.00000000;2022-10-31T15:29:17;20.70;72.90
61672;DHT22;47572;0.00000000;0.00000000;2022-10-31T15:31:51;20.70;72.80
61672;DHT22;47572;0.00000000;0.00000000;2022-10-31T15:36:51;20.90;72.60